createdAt,value
2019-05-23T00:01:20.087Z,11.43
2019-05-23T00:03:52.929Z,10.37
2019-05-23T00:06:23.569Z,8.40
2019-05-23T00:08:52.549Z,8.80
2019-05-23T00:11:40.574Z,8.37
2019-05-23T00:14:21.482Z,8.33
2019-05-23T00:16:51.789Z,7.60
2019-05-23T00:19:21.077Z,7.30
2019-05-23T00:21:50.171Z,7.40
2019-05-23T00:24:19.613Z,7.47
2019-05-23T00:26:48.517Z,6.83
2019-05-23T00:29:40.404Z,7.03
2019-05-23T00:32:26.217Z,7.50
2019-05-23T00:34:56.975Z,7.00
2019-05-23T00:37:27.502Z,6.77
2019-05-23T00:39:55.937Z,7.73
2019-05-23T00:42:26.174Z,7.57
2019-05-23T00:44:56.078Z,8.60
2019-05-23T00:47:24.614Z,8.27
2019-05-23T00:49:53.540Z,9.70
2019-05-23T00:52:22.034Z,9.67
2019-05-23T00:54:51.031Z,11.33
2019-05-23T00:57:19.744Z,11.23
2019-05-23T00:59:49.114Z,11.23
2019-05-23T01:02:18.041Z,10.43
2019-05-23T01:04:47.186Z,11.03
2019-05-23T01:07:16.672Z,10.80
2019-05-23T01:09:46.364Z,9.33
2019-05-23T01:12:15.826Z,8.90
2019-05-23T01:14:44.450Z,8.90
2019-05-23T01:17:12.906Z,9.97
2019-05-23T01:19:42.309Z,9.47
2019-05-23T01:22:12.484Z,9.93
2019-05-23T01:24:42.729Z,10.67
2019-05-23T01:27:13.054Z,13.93
2019-05-23T01:29:49.286Z,14.07
2019-05-23T01:32:27.633Z,13.70
2019-05-23T01:34:56.709Z,12.63
2019-05-23T01:37:26.113Z,10.57
2019-05-23T01:39:55.386Z,9.73
2019-05-23T01:42:26.218Z,9.90
2019-05-23T01:44:55.741Z,11.03
2019-05-23T01:47:24.192Z,12.00
2019-05-23T01:49:53.224Z,12.70
2019-05-23T01:52:22.123Z,13.27
2019-05-23T01:54:50.673Z,13.60
2019-05-23T01:57:19.768Z,14.23
2019-05-23T01:59:48.262Z,12.93
2019-05-23T02:02:18.389Z,10.60
2019-05-23T02:04:47.046Z,9.80
2019-05-23T02:07:16.537Z,10.03
2019-05-23T02:09:45.073Z,9.83
2019-05-23T02:12:14.069Z,9.90
2019-05-23T02:14:44.191Z,10.40
2019-05-23T02:17:13.671Z,10.80
2019-05-23T02:19:42.332Z,11.87
2019-05-23T02:22:13.101Z,10.63
2019-05-23T02:24:42.314Z,11.07
2019-05-23T02:27:11.881Z,10.13
2019-05-23T02:29:41.955Z,9.70
2019-05-23T02:32:12.007Z,9.57
2019-05-23T02:34:41.311Z,8.73
2019-05-23T02:37:11.604Z,8.90
2019-05-23T02:39:45.119Z,8.63
2019-05-23T02:42:15.296Z,9.17
2019-05-23T02:44:44.571Z,9.07
2019-05-23T02:47:32.150Z,9.63
2019-05-23T02:50:02.322Z,9.87
2019-05-23T02:52:44.021Z,10.07
2019-05-23T02:55:16.076Z,10.53
2019-05-23T02:57:47.422Z,10.37
2019-05-23T03:00:54.306Z,10.37
2019-05-23T03:03:24.457Z,10.10
2019-05-23T03:05:53.555Z,9.90
2019-05-23T03:08:23.694Z,12.63
2019-05-23T03:11:01.965Z,9.83
2019-05-23T03:13:33.541Z,9.17
2019-05-23T03:16:02.498Z,9.30
2019-05-23T03:18:34.929Z,9.50
2019-05-23T03:21:05.755Z,10.10
2019-05-23T03:23:35.524Z,9.33
2019-05-23T03:26:25.950Z,9.60
2019-05-23T03:28:56.034Z,9.30
2019-05-23T03:31:32.045Z,10.57
2019-05-23T03:33:59.174Z,10.23
2019-05-23T03:36:28.673Z,10.47
2019-05-23T03:38:58.068Z,10.00
2019-05-23T03:41:28.212Z,11.67
2019-05-23T03:43:56.916Z,9.67
2019-05-23T03:46:27.066Z,9.43
2019-05-23T03:48:55.787Z,9.20
2019-05-23T03:51:24.213Z,9.33
2019-05-23T03:53:54.622Z,9.37
2019-05-23T03:56:23.052Z,8.83
2019-05-23T03:58:54.116Z,9.27
2019-05-23T04:01:24.213Z,9.67
2019-05-23T04:03:52.676Z,9.00
2019-05-23T04:06:21.183Z,8.90
2019-05-23T04:08:50.610Z,9.87
2019-05-23T04:11:19.860Z,10.50
2019-05-23T04:13:48.530Z,12.10
2019-05-23T04:16:17.666Z,10.67
2019-05-23T04:18:46.095Z,10.57
2019-05-23T04:21:15.435Z,10.33
2019-05-23T04:23:44.010Z,10.67
2019-05-23T04:26:12.905Z,10.50
2019-05-23T04:28:42.474Z,11.90
2019-05-23T04:31:13.118Z,11.10
2019-05-23T04:33:42.049Z,11.93
2019-05-23T04:36:10.880Z,12.10
2019-05-23T04:38:39.445Z,11.93
2019-05-23T04:41:07.978Z,10.73
2019-05-23T04:43:36.447Z,12.67
2019-05-23T04:46:05.833Z,10.67
2019-05-23T04:48:35.289Z,11.53
2019-05-23T04:51:04.767Z,11.70
2019-05-23T04:53:33.290Z,12.50
2019-05-23T04:56:02.966Z,12.97
2019-05-23T04:58:31.894Z,11.07
2019-05-23T05:01:00.970Z,11.47
2019-05-23T05:03:30.564Z,12.00
2019-05-23T05:06:00.543Z,11.17
2019-05-23T05:08:29.235Z,12.00
2019-05-23T05:10:58.358Z,11.67
2019-05-23T05:13:27.342Z,12.13
2019-05-23T05:15:55.984Z,12.27
2019-05-23T05:18:24.617Z,12.90
2019-05-23T05:20:53.095Z,11.83
2019-05-23T05:23:21.927Z,12.37
2019-05-23T05:25:50.373Z,13.40
2019-05-23T05:28:18.822Z,12.53
2019-05-23T05:30:47.707Z,11.73
2019-05-23T05:33:16.806Z,12.00
2019-05-23T05:35:45.246Z,12.20
2019-05-23T05:38:14.122Z,12.87
2019-05-23T05:40:42.649Z,11.27
2019-05-23T05:43:11.671Z,13.20
2019-05-23T05:45:40.113Z,12.80
2019-05-23T05:48:08.976Z,12.73
2019-05-23T05:50:38.329Z,12.50
2019-05-23T05:53:06.861Z,11.20
2019-05-23T05:55:35.363Z,11.60
2019-05-23T05:58:04.171Z,11.50
2019-05-23T06:00:49.712Z,13.17
2019-05-23T06:03:18.547Z,12.47
2019-05-23T06:05:51.962Z,11.50
2019-05-23T06:08:22.912Z,12.10
2019-05-23T06:10:51.675Z,11.67
2019-05-23T06:13:20.349Z,11.03
2019-05-23T06:15:49.615Z,11.20
2019-05-23T06:18:18.633Z,11.90
2019-05-23T06:20:47.611Z,13.03
2019-05-23T06:23:17.570Z,11.90
2019-05-23T06:25:46.157Z,11.97
2019-05-23T06:28:15.831Z,11.70
2019-05-23T06:30:44.531Z,11.37
2019-05-23T06:33:23.151Z,11.80
2019-05-23T06:35:43.944Z,12.90
2019-05-23T06:38:12.632Z,11.70
2019-05-23T06:40:41.577Z,11.17
2019-05-23T06:43:10.723Z,11.80
2019-05-23T06:45:41.570Z,11.50
2019-05-23T06:48:13.220Z,12.20
2019-05-23T06:50:41.798Z,12.53
2019-05-23T06:53:10.687Z,13.13
2019-05-23T06:55:39.182Z,12.13
2019-05-23T06:58:07.963Z,12.57
2019-05-23T07:00:37.133Z,12.90
2019-05-23T07:03:06.458Z,13.27
2019-05-23T07:05:36.840Z,12.03
2019-05-23T07:08:06.685Z,12.23
2019-05-23T07:10:35.367Z,12.35
2019-05-23T07:13:04.967Z,11.75
2019-05-23T07:15:33.670Z,11.93
2019-05-23T07:18:02.837Z,11.30
2019-05-23T07:20:31.384Z,12.40
2019-05-23T07:23:00.193Z,13.40
2019-05-23T07:25:28.734Z,13.13
2019-05-23T07:27:57.198Z,12.20
2019-05-23T07:30:26.628Z,13.48
2019-05-23T07:32:55.674Z,13.58
2019-05-23T07:35:25.944Z,14.45
2019-05-23T07:37:54.750Z,13.32
2019-05-23T07:40:26.271Z,13.03
2019-05-23T07:42:55.408Z,14.03
2019-05-23T07:45:25.476Z,13.18
2019-05-23T07:47:54.718Z,12.82
2019-05-23T07:50:23.267Z,10.90
2019-05-23T07:52:53.197Z,11.00
2019-05-23T07:55:35.261Z,10.88
2019-05-23T07:58:04.265Z,12.00
2019-05-23T08:00:37.000Z,12.60
2019-05-23T08:03:07.061Z,11.70
2019-05-23T08:05:35.836Z,10.48
2019-05-23T08:08:05.771Z,6.90
2019-05-23T08:10:34.956Z,8.58
2019-05-23T08:13:03.600Z,6.80
2019-05-23T08:15:33.343Z,6.55
2019-05-23T08:18:01.874Z,6.87
2019-05-23T08:20:30.314Z,4.17
2019-05-23T08:22:58.853Z,6.05
2019-05-23T08:25:27.576Z,6.25
2019-05-23T08:27:56.025Z,6.60
2019-05-23T08:30:25.142Z,6.00
2019-05-23T08:32:53.646Z,5.90
2019-05-23T08:35:22.243Z,4.80
2019-05-23T08:37:50.910Z,6.95
2019-05-23T08:40:19.930Z,7.12
2019-05-23T08:42:48.870Z,5.80
2019-05-23T08:45:18.841Z,5.30
2019-05-23T08:47:47.299Z,5.65
2019-05-23T08:50:18.473Z,4.97
2019-05-23T08:52:46.975Z,4.75
2019-05-23T08:55:27.937Z,4.40
2019-05-23T08:57:56.968Z,6.37
2019-05-23T09:00:27.640Z,4.62
2019-05-23T09:02:58.862Z,5.67
2019-05-23T09:05:31.915Z,6.40
2019-05-23T09:08:00.907Z,6.15
2019-05-23T09:10:29.682Z,6.15
2019-05-23T09:12:59.949Z,6.90
2019-05-23T09:15:28.611Z,7.20
2019-05-23T09:17:57.314Z,7.20
2019-05-23T09:20:26.006Z,7.55
2019-05-23T09:22:54.742Z,9.18
2019-05-23T09:25:23.339Z,8.78
2019-05-23T09:27:53.314Z,9.23
2019-05-23T09:30:24.962Z,10.30
2019-05-23T09:32:53.467Z,10.93
2019-05-23T09:35:22.483Z,12.18
2019-05-23T09:37:51.105Z,11.95
2019-05-23T09:40:19.680Z,10.93
2019-05-23T09:42:48.139Z,12.70
2019-05-23T09:45:18.252Z,11.18
2019-05-23T09:47:51.099Z,10.90
2019-05-23T09:50:18.832Z,10.78
2019-05-23T09:52:47.379Z,10.50
2019-05-23T09:55:16.946Z,11.43
2019-05-23T09:57:45.613Z,11.80
2019-05-23T10:00:16.957Z,11.75
2019-05-23T10:02:45.396Z,11.95
2019-05-23T10:05:14.109Z,10.65
2019-05-23T10:07:42.753Z,10.82
2019-05-23T10:10:12.930Z,9.73
2019-05-23T10:12:41.644Z,9.40
2019-05-23T10:15:12.688Z,8.95
2019-05-23T10:17:41.130Z,9.40
2019-05-23T10:20:10.346Z,9.20
2019-05-23T10:22:38.778Z,9.10
2019-05-23T10:25:07.759Z,8.93
2019-05-23T10:27:36.293Z,7.92
2019-05-23T10:30:09.473Z,9.20
2019-05-23T10:32:38.085Z,8.90
2019-05-23T10:35:08.053Z,10.40
2019-05-23T10:37:36.896Z,7.45
2019-05-23T10:40:07.407Z,9.00
2019-05-23T10:42:36.858Z,9.15
2019-05-23T10:45:09.176Z,8.70
2019-05-23T10:47:37.877Z,8.70
2019-05-23T10:50:09.324Z,9.38
2019-05-23T10:52:37.791Z,8.88
2019-05-23T10:55:07.256Z,9.80
2019-05-23T10:57:35.832Z,10.03
2019-05-23T11:00:09.904Z,10.08
2019-05-23T11:02:39.438Z,7.30
2019-05-23T11:05:13.693Z,7.65
2019-05-23T11:07:43.741Z,8.58
2019-05-23T11:10:12.910Z,8.20
2019-05-23T11:12:42.386Z,8.30
2019-05-23T11:15:11.886Z,8.65
2019-05-23T11:17:40.831Z,7.53
2019-05-23T11:20:10.939Z,6.87
2019-05-23T11:22:39.511Z,6.80
2019-05-23T11:25:10.253Z,7.80
2019-05-23T11:27:39.050Z,9.53
2019-05-23T11:30:11.077Z,9.28
2019-05-23T11:32:39.522Z,8.40
2019-05-23T11:35:08.392Z,8.85
2019-05-23T11:37:36.885Z,9.15
2019-05-23T11:40:07.276Z,8.63
2019-05-23T11:42:36.317Z,10.75
2019-05-23T11:45:07.230Z,10.58
2019-05-23T11:47:35.949Z,10.35
2019-05-23T11:50:09.166Z,10.58
2019-05-23T11:52:38.004Z,11.40
2019-05-23T11:55:08.298Z,10.80
2019-05-23T11:57:38.490Z,10.40
2019-05-23T12:00:10.506Z,7.62
2019-05-23T12:02:43.669Z,7.80
2019-05-23T12:05:14.259Z,7.30
2019-05-23T12:07:42.834Z,7.50
2019-05-23T12:10:11.616Z,8.58
2019-05-23T12:12:40.097Z,9.10
2019-05-23T12:15:13.059Z,9.08
2019-05-23T12:17:42.458Z,8.30
2019-05-23T12:20:11.865Z,8.58
2019-05-23T12:22:40.686Z,8.65
2019-05-23T12:25:22.084Z,8.58
2019-05-23T12:27:41.822Z,8.90
2019-05-23T12:30:13.865Z,10.35
2019-05-23T12:32:42.584Z,9.58
2019-05-23T12:35:12.176Z,9.13
2019-05-23T12:37:41.070Z,11.10
2019-05-23T12:40:11.616Z,8.93
2019-05-23T12:42:40.192Z,9.30
2019-05-23T12:45:10.777Z,8.70
2019-05-23T12:47:59.522Z,8.75
2019-05-23T12:50:30.162Z,9.00
2019-05-23T12:52:58.622Z,8.98
2019-05-23T12:55:27.296Z,8.83
2019-05-23T12:57:55.770Z,9.40
2019-05-23T13:00:41.500Z,7.47
2019-05-23T13:03:11.853Z,8.85
2019-05-23T13:05:41.265Z,8.38
2019-05-23T13:08:09.831Z,8.20
2019-05-23T13:10:38.507Z,7.85
2019-05-23T13:13:07.887Z,11.38
2019-05-23T13:15:37.637Z,8.95
2019-05-23T13:18:06.094Z,7.62
2019-05-23T13:20:34.723Z,9.05
2019-05-23T13:23:03.340Z,8.25
2019-05-23T13:25:32.473Z,7.58
2019-05-23T13:28:01.524Z,6.58
2019-05-23T13:30:30.018Z,7.67
2019-05-23T13:32:58.559Z,7.25
2019-05-23T13:35:28.807Z,8.33
2019-05-23T13:37:57.341Z,7.95
2019-05-23T13:40:25.864Z,8.50
2019-05-23T13:42:54.338Z,7.67
2019-05-23T13:45:22.915Z,7.37
2019-05-23T13:47:51.966Z,7.03
2019-05-23T13:50:20.960Z,8.55
2019-05-23T13:52:49.876Z,5.92
2019-05-23T13:55:19.610Z,6.65
2019-05-23T13:57:48.254Z,6.33
2019-05-23T14:00:18.145Z,6.42
2019-05-23T14:02:47.352Z,6.62
2019-05-23T14:05:19.118Z,6.47
2019-05-23T14:07:47.658Z,5.80
2019-05-23T14:10:16.754Z,6.15
2019-05-23T14:12:45.558Z,6.72
2019-05-23T14:15:15.733Z,6.33
2019-05-23T14:17:48.376Z,6.12
2019-05-23T14:20:17.255Z,6.90
2019-05-23T14:23:04.405Z,6.67
2019-05-23T14:25:33.942Z,7.45
2019-05-23T14:28:07.124Z,6.85
2019-05-23T14:30:37.397Z,7.03
2019-05-23T14:33:27.161Z,6.17
2019-05-23T14:35:57.760Z,6.62
2019-05-23T14:38:31.089Z,5.47
2019-05-23T14:40:58.325Z,6.78
2019-05-23T14:43:28.030Z,6.70
2019-05-23T14:45:58.476Z,5.80
2019-05-23T14:48:34.782Z,5.80
2019-05-23T14:51:21.844Z,5.45
2019-05-23T14:54:08.600Z,5.65
2019-05-23T14:56:39.270Z,5.10
2019-05-23T14:59:07.745Z,5.42
2019-05-23T15:01:36.367Z,5.85
2019-05-23T15:04:06.057Z,6.40
2019-05-23T15:06:34.734Z,5.03
2019-05-23T15:09:04.025Z,5.72
2019-05-23T15:11:32.530Z,5.53
2019-05-23T15:14:01.144Z,5.70
2019-05-23T15:16:29.645Z,4.85
2019-05-23T15:18:58.181Z,5.65
2019-05-23T15:21:26.614Z,4.65
2019-05-23T15:23:55.090Z,5.60
2019-05-23T15:26:24.045Z,5.80
2019-05-23T15:28:52.834Z,4.60
2019-05-23T15:31:21.501Z,5.53
2019-05-23T15:33:49.951Z,6.17
2019-05-23T15:36:18.517Z,6.55
2019-05-23T15:38:47.072Z,5.25
2019-05-23T15:41:15.565Z,5.42
2019-05-23T15:43:44.293Z,4.87
2019-05-23T15:46:12.822Z,5.72
2019-05-23T15:48:41.406Z,6.00
2019-05-23T15:51:11.505Z,5.30
2019-05-23T15:53:56.679Z,6.83
2019-05-23T15:56:42.356Z,6.83
2019-05-23T15:59:12.466Z,6.03
2019-05-23T16:01:59.398Z,6.45
2019-05-23T16:04:29.075Z,6.83
2019-05-23T16:06:57.674Z,6.78
2019-05-23T16:09:29.934Z,6.45
2019-05-23T16:11:57.802Z,7.20
2019-05-23T16:14:26.713Z,7.85
2019-05-23T16:16:57.258Z,7.40
2019-05-23T16:19:26.197Z,8.23
2019-05-23T16:21:55.190Z,6.83
2019-05-23T16:24:23.706Z,7.45
2019-05-23T16:26:52.318Z,7.75
2019-05-23T16:29:20.919Z,7.75
2019-05-23T16:31:49.417Z,8.50
2019-05-23T16:34:17.922Z,8.38
2019-05-23T16:36:46.659Z,7.83
2019-05-23T16:39:15.973Z,8.33
2019-05-23T16:41:44.388Z,8.45
2019-05-23T16:44:13.215Z,8.68
2019-05-23T16:46:41.760Z,8.30
2019-05-23T16:49:10.308Z,8.53
2019-05-23T16:51:38.922Z,9.35
2019-05-23T16:54:10.799Z,9.40
2019-05-23T16:56:57.528Z,9.90
2019-05-23T16:59:27.822Z,8.48
2019-05-23T17:02:07.050Z,10.35
2019-05-23T17:04:39.860Z,9.93
2019-05-23T17:07:26.580Z,9.55
2019-05-23T17:10:08.212Z,10.48
2019-05-23T17:12:28.594Z,10.35
2019-05-23T17:15:02.149Z,11.18
2019-05-23T17:18:01.188Z,10.78
2019-05-23T17:20:23.388Z,10.58
2019-05-23T17:22:53.570Z,10.25
2019-05-23T17:25:38.620Z,11.15
2019-05-23T17:28:09.117Z,10.80
2019-05-23T17:30:39.622Z,9.85
2019-05-23T17:33:08.320Z,11.12
2019-05-23T17:35:37.051Z,10.10
2019-05-23T17:38:05.488Z,11.43
2019-05-23T17:40:34.309Z,10.58
2019-05-23T17:43:02.834Z,10.88
2019-05-23T17:45:32.023Z,9.80
2019-05-23T17:48:01.021Z,10.50
2019-05-23T17:50:30.097Z,10.50
2019-05-23T17:52:58.587Z,10.85
2019-05-23T17:55:28.095Z,9.25
2019-05-23T17:57:56.993Z,10.80
2019-05-23T18:00:27.512Z,9.83
2019-05-23T18:02:56.522Z,9.93
2019-05-23T18:05:25.087Z,11.45
2019-05-23T18:07:53.619Z,10.18
2019-05-23T18:10:22.441Z,11.48
2019-05-23T18:12:51.824Z,10.78
2019-05-23T18:15:20.843Z,12.10
2019-05-23T18:17:51.091Z,11.57
2019-05-23T18:20:19.681Z,11.35
2019-05-23T18:22:48.322Z,12.10
2019-05-23T18:25:17.098Z,11.53
2019-05-23T18:27:45.610Z,10.23
2019-05-23T18:30:15.950Z,10.28
2019-05-23T18:32:44.496Z,10.20
2019-05-23T18:35:14.170Z,10.82
2019-05-23T18:37:43.279Z,10.78
2019-05-23T18:40:12.070Z,9.20
2019-05-23T18:42:40.538Z,8.55
2019-05-23T18:45:09.381Z,7.42
2019-05-23T18:47:39.635Z,7.80
2019-05-23T18:50:10.210Z,7.55
2019-05-23T18:52:38.928Z,8.05
2019-05-23T18:55:07.739Z,7.30
2019-05-23T18:57:36.837Z,7.03
2019-05-23T19:00:06.888Z,7.25
2019-05-23T19:02:35.631Z,7.17
2019-05-23T19:05:07.347Z,7.67
2019-05-23T19:07:36.103Z,7.50
2019-05-23T19:10:08.917Z,7.90
2019-05-23T19:12:37.774Z,8.08
2019-05-23T19:15:07.183Z,7.67
2019-05-23T19:17:37.151Z,7.67
2019-05-23T19:20:08.730Z,8.28
2019-05-23T19:22:37.327Z,8.38
2019-05-23T19:25:07.999Z,7.37
2019-05-23T19:27:36.835Z,8.45
2019-05-23T19:30:09.093Z,7.58
2019-05-23T19:32:38.259Z,7.17
2019-05-23T19:35:07.877Z,6.95
2019-05-23T19:37:36.492Z,7.05
2019-05-23T19:40:09.519Z,7.58
2019-05-23T19:42:38.267Z,7.75
2019-05-23T19:45:07.679Z,8.53
2019-05-23T19:47:36.158Z,7.12
2019-05-23T19:50:07.881Z,7.00
2019-05-23T19:52:36.480Z,6.72
2019-05-23T19:55:08.706Z,6.85
2019-05-23T19:57:38.511Z,7.28
2019-05-23T20:00:09.515Z,7.40
2019-05-23T20:02:51.936Z,7.17
2019-05-23T20:05:22.037Z,7.45
2019-05-23T20:07:50.472Z,7.25
2019-05-23T20:10:21.350Z,7.25
2019-05-23T20:12:49.852Z,7.28
2019-05-23T20:15:18.512Z,7.53
2019-05-23T20:17:51.073Z,7.80
2019-05-23T20:20:17.702Z,7.55
2019-05-23T20:22:46.229Z,7.17
2019-05-23T20:25:15.278Z,7.58
2019-05-23T20:27:43.887Z,7.37
2019-05-23T20:30:17.111Z,7.67
2019-05-23T20:32:45.595Z,7.72
2019-05-23T20:35:14.648Z,7.67
2019-05-23T20:37:43.259Z,8.05
2019-05-23T20:40:12.095Z,7.87
2019-05-23T20:42:40.662Z,9.00
2019-05-23T20:45:09.647Z,9.78
2019-05-23T20:47:38.257Z,10.08
2019-05-23T20:50:06.958Z,10.40
2019-05-23T20:52:35.408Z,10.00
2019-05-23T20:55:05.082Z,9.38
2019-05-23T20:57:33.524Z,9.83
2019-05-23T21:00:02.339Z,9.43
2019-05-23T21:02:30.996Z,9.48
2019-05-23T21:04:59.542Z,9.53
2019-05-23T21:07:28.041Z,9.60
2019-05-23T21:09:56.519Z,10.03
2019-05-23T21:12:29.953Z,10.03
2019-05-23T21:14:55.146Z,9.68
2019-05-23T21:17:25.242Z,10.58
2019-05-23T21:19:53.782Z,10.03
2019-05-23T21:22:22.329Z,9.95
2019-05-23T21:24:50.864Z,9.40
2019-05-23T21:27:19.344Z,9.80
2019-05-23T21:29:47.878Z,10.80
2019-05-23T21:32:17.084Z,9.55
2019-05-23T21:34:45.618Z,9.30
2019-05-23T21:37:14.064Z,9.88
2019-05-23T21:39:45.819Z,11.38
2019-05-23T21:42:14.317Z,10.40
2019-05-23T21:44:42.844Z,11.25
2019-05-23T21:47:11.570Z,10.45
2019-05-23T21:49:40.043Z,10.00
2019-05-23T21:52:08.614Z,10.38
2019-05-23T21:54:37.146Z,10.55
2019-05-23T21:57:06.227Z,11.48
2019-05-23T21:59:34.766Z,11.03
2019-05-23T22:02:11.502Z,9.90
2019-05-23T22:04:41.650Z,10.35
2019-05-23T22:07:10.193Z,10.63
2019-05-23T22:09:39.072Z,11.48
2019-05-23T22:12:09.247Z,11.20
2019-05-23T22:14:38.563Z,11.48
2019-05-23T22:17:07.088Z,12.30
2019-05-23T22:19:36.026Z,11.63
2019-05-23T22:22:05.381Z,12.53
2019-05-23T22:24:33.837Z,11.83
2019-05-23T22:27:02.375Z,11.45
2019-05-23T22:29:30.836Z,10.90
2019-05-23T22:31:59.357Z,10.75
2019-05-23T22:34:41.523Z,11.05
2019-05-23T22:37:14.750Z,11.30
2019-05-23T22:39:43.561Z,12.03
2019-05-23T22:42:13.577Z,12.05
2019-05-23T22:44:42.324Z,11.75
2019-05-23T22:47:10.784Z,12.37
2019-05-23T22:49:39.283Z,11.33
2019-05-23T22:52:07.862Z,11.88
2019-05-23T22:54:36.327Z,11.70
2019-05-23T22:57:05.242Z,11.65
2019-05-23T22:59:33.717Z,11.20
2019-05-23T23:02:02.419Z,11.45
2019-05-23T23:04:30.870Z,11.50
2019-05-23T23:06:59.506Z,12.60
2019-05-23T23:09:28.025Z,13.13
2019-05-23T23:11:57.130Z,12.50
2019-05-23T23:14:25.892Z,12.10
2019-05-23T23:16:54.903Z,13.10
2019-05-23T23:19:23.527Z,14.40
2019-05-23T23:21:52.039Z,14.77
2019-05-23T23:24:20.612Z,16.13
2019-05-23T23:26:49.118Z,15.80
2019-05-23T23:29:17.562Z,16.00
2019-05-23T23:31:46.246Z,15.30
2019-05-23T23:34:14.778Z,15.93
2019-05-23T23:36:43.229Z,15.93
2019-05-23T23:39:11.762Z,14.83
2019-05-23T23:41:40.234Z,14.97
2019-05-23T23:44:10.905Z,14.20
2019-05-23T23:46:57.531Z,14.33
2019-05-23T23:49:44.237Z,13.80
2019-05-23T23:52:30.985Z,13.60
2019-05-23T23:55:17.511Z,14.07
2019-05-23T23:58:00.405Z,12.57
